Time;durP1;ratioP1;P1;durP2;ratioP2;P2;SDS_P1;SDS_P2;PMS_P1;PMS_P2;Temp;Humidity;BMP_temperature;BMP_pressure;BME280_temperature;BME280_humidity;BME280_pressure;Samples;Min_cycle;Max_cycle;Signal;HPM_P1;HPM_P2
2023/06/24 00:00:30;;;;;;;4.65;2.08;;;17.60;99.60;;;17.14;89.25;102095.91;4169001;28;20057;-76
2023/06/24 00:02:31;;;;;;;3.08;2.05;;;17.60;99.70;;;17.02;89.58;102083.09;4167868;28;20033;-76
2023/06/24 00:04:32;;;;;;;4.10;2.22;;;17.60;99.80;;;17.00;89.23;102080.59;4200903;28;20013;-76
2023/06/24 00:06:33;;;;;;;3.35;1.85;;;17.50;99.70;;;17.05;89.45;102093.44;4169118;28;20021;-76
2023/06/24 00:08:34;;;;;;;2.60;1.83;;;17.50;99.80;;;16.95;89.62;102085.59;4169163;28;20374;-76
2023/06/24 00:10:35;;;;;;;2.42;1.85;;;17.50;99.80;;;16.98;89.94;102092.41;4167994;28;20370;-76
2023/06/24 00:12:37;;;;;;;2.60;1.67;;;17.40;99.80;;;16.98;90.11;102093.25;4168830;28;20116;-76
2023/06/24 00:14:38;;;;;;;2.42;2.00;;;17.40;99.90;;;16.87;90.37;102080.25;4151715;28;20095;-76
2023/06/24 00:16:41;;;;;;;3.85;2.15;;;17.40;99.90;;;16.90;90.59;102087.91;4151341;28;20026;-76
2023/06/24 00:18:42;;;;;;;2.67;2.00;;;17.30;99.90;;;16.68;91.16;102063.72;4151208;28;20038;-76
2023/06/24 00:20:43;;;;;;;3.08;2.00;;;17.30;99.90;;;16.72;91.23;102071.22;4156408;28;20036;-76
2023/06/24 00:22:44;;;;;;;2.72;1.90;;;17.30;99.90;;;16.72;92.38;102073.06;4168711;28;20041;-76
2023/06/24 00:24:44;;;;;;;2.42;1.60;;;17.20;99.90;;;16.59;93.14;102060.19;4167690;28;20416;-76
2023/06/24 00:26:48;;;;;;;2.35;1.67;;;17.20;99.90;;;16.69;93.91;102087.53;4167327;28;20017;-76
2023/06/24 00:28:49;;;;;;;1.98;1.70;;;17.10;99.90;;;16.61;93.86;102078.69;4187678;28;20021;-76
2023/06/24 00:30:50;;;;;;;3.38;1.70;;;17.10;99.90;;;16.56;93.77;102077.34;4168290;28;20089;-76
2023/06/24 00:32:51;;;;;;;2.88;1.90;;;17.00;99.90;;;16.45;93.57;102052.81;4184067;28;20025;-76
2023/06/24 00:34:52;;;;;;;2.88;2.25;;;17.00;99.90;;;16.55;93.29;102081.00;4167516;28;20030;-76
2023/06/24 00:36:53;;;;;;;2.97;1.80;;;17.00;99.90;;;16.34;92.84;102042.44;4183978;28;20546;-76
2023/06/24 00:38:56;;;;;;;2.75;1.77;;;17.00;99.90;;;16.42;93.03;102053.13;4168729;28;20106;-76
2023/06/24 00:40:58;;;;;;;2.88;1.70;;;17.00;99.90;;;16.38;93.67;102057.94;4167119;28;20038;-76
2023/06/24 00:43:01;;;;;;;2.72;2.08;;;16.90;99.90;;;16.28;94.29;102048.41;4151347;28;20096;-76
2023/06/24 00:45:04;;;;;;;2.22;1.63;;;16.90;99.90;;;16.41;94.88;102078.94;4166424;28;20026;-76
2023/06/24 00:47:08;;;;;;;3.77;2.17;;;16.90;99.90;;;16.27;94.80;102058.25;4168641;28;20024;-76
2023/06/24 00:49:09;;;;;;;2.15;1.77;;;16.80;99.90;;;16.34;94.40;102069.91;4167641;28;20026;-76
2023/06/24 00:51:10;;;;;;;3.30;1.80;;;16.80;99.90;;;16.37;93.59;102080.22;4167569;28;20025;-76
2023/06/24 00:53:14;;;;;;;4.65;1.98;;;16.80;99.90;;;16.34;93.40;102066.41;4168710;28;20025;-75
2023/06/24 00:55:17;;;;;;;3.83;1.88;;;16.80;99.90;;;16.38;93.27;102073.94;4167422;28;20076;-76
2023/06/24 00:57:24;;;;;;;2.42;1.80;;;16.80;99.90;;;16.35;93.20;102074.25;4168221;28;20060;-76
2023/06/24 00:59:28;;;;;;;2.78;1.80;;;16.80;99.90;;;16.24;92.77;102057.72;4167671;28;20065;-76
2023/06/24 01:01:35;;;;;;;3.47;2.33;;;16.80;99.90;;;16.31;92.47;102056.06;4167461;28;20051;-76
2023/06/24 01:03:37;;;;;;;2.70;1.90;;;16.70;99.90;;;16.35;92.44;102071.59;4168559;28;20080;-76
2023/06/24 01:05:38;;;;;;;2.80;1.70;;;16.80;99.90;;;16.26;92.42;102053.91;4200540;28;20547;-76
2023/06/24 01:07:39;;;;;;;2.33;1.88;;;16.80;99.90;;;16.22;92.81;102057.88;4156583;28;20038;-76
2023/06/24 01:09:40;;;;;;;3.60;2.20;;;16.80;99.90;;;16.22;92.68;102052.56;4167354;28;20037;-76
2023/06/24 01:11:41;;;;;;;2.47;1.65;;;16.70;99.90;;;16.23;93.22;102058.72;4167271;28;20028;-76
2023/06/24 01:13:43;;;;;;;2.50;1.90;;;16.70;99.90;;;16.22;93.21;102060.53;4168428;28;20029;-76
2023/06/24 01:15:45;;;;;;;3.30;1.90;;;16.70;99.90;;;16.24;93.85;102068.38;4168575;28;20021;-76
2023/06/24 01:17:57;;;;;;;3.30;2.20;;;16.70;99.90;;;16.26;93.77;102059.22;4167147;28;20057;-76
2023/06/24 01:20:35;;;;;;;3.40;1.67;;;16.60;99.90;;;16.26;93.54;102058.41;4150892;28;20045;-75
2023/06/24 01:23:04;;;;;;;3.45;1.55;;;16.70;99.90;;;16.23;93.72;102062.22;4152271;28;20025;-76
2023/06/24 01:25:30;;;;;;;3.13;1.95;;;16.70;99.90;;;16.21;94.20;102053.56;4150780;28;20037;-76
2023/06/24 01:28:08;;;;;;;3.50;2.05;;;16.70;99.90;;;16.18;95.01;102058.38;4150388;28;20420;-76
2023/06/24 01:31:09;;;;;;;2.45;1.80;;;16.60;99.90;;;16.02;95.14;102045.81;4134602;28;20034;-76
2023/06/24 01:33:19;;;;;;;3.80;2.15;;;16.50;99.90;;;15.93;95.77;102026.31;4151085;28;20033;-76
2023/06/24 01:35:28;;;;;;;3.75;2.50;;;16.50;99.90;;;16.01;96.16;102049.47;4151094;28;20030;-76
2023/06/24 01:37:37;;;;;;;3.50;1.90;;;16.50;99.90;;;16.01;97.01;102049.47;4151123;28;20049;-75
2023/06/24 01:39:57;;;;;;;3.22;2.22;;;16.40;99.90;;;15.85;97.58;102028.13;4151897;28;20121;-76
2023/06/24 01:42:09;;;;;;;3.50;1.98;;;16.40;99.90;;;15.92;98.47;102040.63;4150678;28;20022;-76
2023/06/24 01:44:15;;;;;;;2.88;2.00;;;16.40;99.90;;;15.80;99.02;102031.25;4150720;28;20030;-76
2023/06/24 01:46:21;;;;;;;2.78;2.00;;;16.30;99.90;;;15.73;99.90;102032.03;4150549;28;20053;-76
2023/06/24 01:48:27;;;;;;;3.85;2.40;;;16.30;99.90;;;15.75;100.00;102043.34;4150793;28;20049;-76
2023/06/24 01:50:32;;;;;;;4.90;2.35;;;16.20;99.90;;;15.70;100.00;102037.69;4150717;28;20036;-76
2023/06/24 01:52:35;;;;;;;3.55;2.33;;;16.20;99.90;;;15.60;100.00;102032.47;4151798;28;20088;-76
2023/06/24 01:54:38;;;;;;;4.35;3.00;;;16.10;99.90;;;15.56;100.00;102023.13;4150413;28;20092;-76
2023/06/24 01:56:41;;;;;;;2.80;2.20;;;16.10;99.90;;;15.55;100.00;102025.94;4152492;28;20018;-76
2023/06/24 01:58:44;;;;;;;2.97;2.15;;;16.10;99.90;;;15.52;100.00;102020.94;4154165;28;20037;-76
2023/06/24 02:00:46;;;;;;;3.63;2.25;;;16.10;99.90;;;15.46;100.00;102012.56;4153374;28;20182;-75
2023/06/24 02:02:49;;;;;;;3.53;1.85;;;16.00;99.90;;;15.54;100.00;102021.63;4153430;28;20018;-76
2023/06/24 02:04:53;;;;;;;2.83;1.90;;;16.00;99.90;;;15.46;100.00;102009.91;4154649;28;20030;-75
2023/06/24 02:06:55;;;;;;;3.55;2.20;;;16.00;99.90;;;15.56;100.00;102030.28;4154558;28;20109;-76
2023/06/24 02:08:58;;;;;;;3.38;2.03;;;16.00;99.90;;;15.43;100.00;102010.22;4154460;28;20374;-76
2023/06/24 02:11:01;;;;;;;4.20;2.08;;;16.00;99.90;;;15.47;100.00;102027.56;4153398;28;20029;-76
2023/06/24 02:13:03;;;;;;;2.35;1.85;;;16.00;99.90;;;15.48;100.00;102020.41;4153304;28;20037;-76
2023/06/24 02:15:06;;;;;;;2.58;2.03;;;15.90;99.90;;;15.42;100.00;102021.84;4154920;28;20362;-75
2023/06/24 02:17:12;;;;;;;4.20;1.90;;;15.90;99.90;;;15.37;100.00;102024.16;4153110;28;20401;-76
2023/06/24 02:19:17;;;;;;;3.17;2.22;;;15.90;99.90;;;15.35;100.00;102014.66;4163715;28;20115;-76
2023/06/24 02:21:19;;;;;;;2.72;1.95;;;15.80;99.90;;;15.36;100.00;102024.28;4169626;28;20036;-76
2023/06/24 02:23:22;;;;;;;2.53;1.80;;;15.80;99.90;;;15.34;100.00;102021.81;4169472;28;20025;-76
2023/06/24 02:25:25;;;;;;;3.63;2.15;;;15.80;99.90;;;15.27;100.00;102015.44;4169504;28;20091;-76
2023/06/24 02:27:27;;;;;;;4.85;2.00;;;15.80;99.90;;;15.23;100.00;102018.56;4168886;28;20021;-76
2023/06/24 02:29:30;;;;;;;3.03;2.10;;;15.70;99.90;;;15.15;100.00;102007.84;4152950;28;20121;-76
2023/06/24 02:31:30;;;;;;;2.10;1.60;;;15.70;99.90;;;15.11;100.00;102009.16;4169411;28;20029;-76
2023/06/24 02:33:32;;;;;;;3.25;2.03;;;15.60;99.90;;;15.15;100.00;102019.31;4152972;28;20041;-76
2023/06/24 02:35:33;;;;;;;4.50;2.10;;;15.60;99.90;;;15.04;100.00;102000.97;4153139;28;20037;-76
2023/06/24 02:37:34;;;;;;;3.90;2.50;;;15.60;99.90;;;15.11;100.00;102012.66;4170285;28;20065;-76
2023/06/24 02:39:37;;;;;;;3.33;2.28;;;15.50;99.90;;;14.96;100.00;101992.94;4202444;28;20025;-76
2023/06/24 02:41:38;;;;;;;2.65;2.10;;;15.50;99.90;;;15.02;100.00;102010.09;4168808;28;20034;-75
2023/06/24 02:43:39;;;;;;;3.03;2.22;;;15.50;99.90;;;15.04;100.00;102010.78;4169249;28;20026;-75
2023/06/24 02:45:40;;;;;;;2.92;1.95;;;15.50;99.90;;;15.06;100.00;102014.94;4170288;28;20021;-76
2023/06/24 02:47:45;;;;;;;3.40;2.30;;;15.50;99.90;;;15.05;100.00;102005.31;4153714;28;20038;-75
2023/06/24 02:49:48;;;;;;;3.08;2.17;;;15.50;99.90;;;14.94;100.00;101997.56;4152170;28;20022;-75
2023/06/24 02:51:49;;;;;;;4.65;2.20;;;15.50;99.90;;;14.98;100.00;102012.22;4169112;28;20041;-75
2023/06/24 02:53:50;;;;;;;4.13;2.47;;;15.50;99.90;;;14.94;100.00;102008.19;4170199;28;20049;-75
2023/06/24 02:55:54;;;;;;;3.92;2.50;;;15.40;99.90;;;14.83;100.00;101988.03;4169926;28;20036;-76
2023/06/24 02:57:57;;;;;;;4.53;2.40;;;15.40;99.90;;;14.88;100.00;102000.84;4169032;28;20036;-75
2023/06/24 02:59:57;;;;;;;5.50;2.35;;;15.40;99.90;;;14.82;100.00;101990.81;4168869;28;20068;-75
2023/06/24 03:01:59;;;;;;;3.03;2.35;;;15.40;99.90;;;14.90;100.00;102004.19;4168893;28;20424;-76
2023/06/24 03:04:00;;;;;;;5.38;2.47;;;15.40;99.90;;;14.85;100.00;102006.44;4169050;28;20036;-76
2023/06/24 03:06:02;;;;;;;4.63;2.40;;;15.30;99.90;;;14.83;100.00;102011.94;4202049;28;20361;-75
2023/06/24 03:08:04;;;;;;;3.08;2.30;;;15.30;99.90;;;14.81;100.00;102013.88;4168923;28;20040;-76
2023/06/24 03:10:06;;;;;;;2.55;2.10;;;15.30;99.90;;;14.73;100.00;101995.22;4152290;28;20057;-75
2023/06/24 03:12:07;;;;;;;6.22;2.10;;;15.30;99.90;;;14.78;100.00;102005.41;4168420;28;20083;-76
2023/06/24 03:14:10;;;;;;;2.53;2.03;;;15.30;99.90;;;14.74;100.00;102009.34;4169964;28;20029;-75
2023/06/24 03:16:12;;;;;;;3.70;2.63;;;15.20;99.90;;;14.71;100.00;102005.19;4168580;28;20131;-75
2023/06/24 03:18:13;;;;;;;3.40;2.13;;;15.20;99.90;;;14.59;100.00;102000.25;4168484;28;20037;-75
2023/06/24 03:20:14;;;;;;;3.15;2.05;;;15.20;99.90;;;14.70;100.00;102007.97;4169638;28;20121;-76
2023/06/24 03:22:16;;;;;;;2.97;2.00;;;15.20;99.90;;;14.67;100.00;102002.97;4168367;28;20491;-75
2023/06/24 03:24:17;;;;;;;4.15;2.30;;;15.20;99.90;;;14.56;100.00;101992.56;4169803;28;20108;-75
2023/06/24 03:26:18;;;;;;;3.65;2.10;;;15.20;99.90;;;14.52;100.00;101977.91;4169517;28;20362;-75
2023/06/24 03:28:19;;;;;;;3.25;2.10;;;15.10;99.90;;;14.66;100.00;102012.78;4169520;28;20034;-75
2023/06/24 03:30:20;;;;;;;4.05;2.40;;;15.10;99.90;;;14.67;100.00;102009.13;4169751;28;20025;-76
2023/06/24 03:32:21;;;;;;;4.45;2.47;;;15.10;99.90;;;14.67;100.00;102014.44;4184909;28;20029;-75
2023/06/24 03:34:22;;;;;;;3.53;2.33;;;15.10;99.90;;;14.62;100.00;101995.47;4169589;28;20025;-76
2023/06/24 03:36:23;;;;;;;3.03;2.08;;;15.10;99.90;;;14.62;100.00;102002.59;4169525;28;20037;-75
2023/06/24 03:38:24;;;;;;;3.80;2.25;;;15.10;99.90;;;14.48;100.00;101984.53;4168435;28;20033;-76
2023/06/24 03:40:25;;;;;;;2.65;2.20;;;15.10;99.90;;;14.60;100.00;102005.41;4168335;28;20508;-76
2023/06/24 03:42:26;;;;;;;4.38;2.50;;;15.10;99.90;;;14.63;100.00;102012.25;4168246;28;20014;-76
2023/06/24 03:44:27;;;;;;;4.72;2.58;;;15.10;99.90;;;14.49;100.00;101986.19;4168421;28;20501;-75
2023/06/24 03:46:32;;;;;;;4.45;2.42;;;15.10;99.90;;;14.40;100.00;101980.81;4169360;28;20393;-75
2023/06/24 03:48:34;;;;;;;2.90;2.20;;;15.10;99.90;;;14.58;100.00;102011.84;4201323;28;20056;-76
2023/06/24 03:50:35;;;;;;;4.20;2.58;;;15.00;99.90;;;14.55;100.00;102014.78;4201251;28;20032;-75
2023/06/24 03:52:36;;;;;;;5.32;2.63;;;15.00;99.90;;;14.57;100.00;102018.16;4168049;28;20056;-76
2023/06/24 03:54:38;;;;;;;3.67;2.60;;;15.00;99.90;;;14.56;100.00;102017.31;4169340;28;20034;-76
2023/06/24 03:56:39;;;;;;;3.40;2.40;;;15.00;99.90;;;14.43;100.00;101994.75;4169033;28;20021;-75
2023/06/24 03:58:40;;;;;;;6.03;2.65;;;15.00;99.90;;;14.53;100.00;102017.63;4169175;28;20116;-75
2023/06/24 04:00:42;;;;;;;5.13;2.85;;;15.00;99.90;;;14.52;100.00;102015.09;4167696;28;20033;-75
2023/06/24 04:02:45;;;;;;;3.88;2.95;;;15.00;99.90;;;14.48;100.00;102009.28;4169220;28;20096;-75
2023/06/24 04:04:51;;;;;;;3.42;2.47;;;15.00;99.90;;;14.51;100.00;102008.97;4169197;28;20026;-76
2023/06/24 04:06:51;;;;;;;4.93;2.75;;;15.00;99.90;;;14.55;100.00;102020.09;4169102;28;20481;-76
2023/06/24 04:08:53;;;;;;;3.80;2.50;;;15.00;99.90;;;14.61;100.00;102022.16;4169054;28;20033;-76
2023/06/24 04:10:53;;;;;;;4.18;2.55;;;15.00;99.90;;;14.57;100.00;102018.16;4168850;28;20513;-76
2023/06/24 04:12:54;;;;;;;4.15;2.38;;;15.10;99.90;;;14.63;100.00;102017.56;4168999;28;20045;-76
2023/06/24 04:14:55;;;;;;;3.97;2.30;;;15.10;99.90;;;14.61;100.00;102017.69;4151600;28;20026;-76
2023/06/24 04:16:56;;;;;;;3.38;2.67;;;15.10;99.90;;;14.48;100.00;101992.50;4167896;28;20025;-75
2023/06/24 04:18:57;;;;;;;2.65;2.22;;;15.10;99.90;;;14.66;100.00;102019.91;4200407;28;20059;-75
2023/06/24 04:20:58;;;;;;;4.32;2.60;;;15.10;99.90;;;14.51;100.00;101992.19;4167862;28;20471;-76
2023/06/24 04:23:00;;;;;;;3.83;3.13;;;15.10;99.90;;;14.65;100.00;102005.78;4168780;28;20021;-75
2023/06/24 04:25:01;;;;;;;4.53;2.90;;;15.10;99.90;;;14.57;100.00;101994.25;4167774;28;20029;-76
2023/06/24 04:27:02;;;;;;;3.42;2.53;;;15.20;99.90;;;14.69;100.00;102014.28;4167490;28;20025;-75
2023/06/24 04:29:03;;;;;;;3.65;2.70;;;15.20;99.90;;;14.55;100.00;101991.72;4168011;28;20100;-76
2023/06/24 04:31:04;;;;;;;3.28;2.80;;;15.20;99.90;;;14.60;100.00;102002.75;4168838;28;20075;-75
2023/06/24 04:33:05;;;;;;;3.65;2.50;;;15.20;99.90;;;14.72;100.00;102021.97;4167156;28;20056;-76
2023/06/24 04:35:06;;;;;;;2.80;2.33;;;15.20;99.90;;;14.72;100.00;102016.66;4200595;28;20040;-75
2023/06/24 04:37:07;;;;;;;2.92;2.35;;;15.20;99.90;;;14.68;100.00;102013.44;4152928;28;20036;-75
2023/06/24 04:39:08;;;;;;;3.20;2.42;;;15.20;99.90;;;14.62;100.00;101999.94;4168774;28;20026;-75
2023/06/24 04:41:09;;;;;;;4.05;2.60;;;15.20;99.90;;;14.72;100.00;102006.88;4151176;28;20113;-75
2023/06/24 04:43:10;;;;;;;4.22;2.97;;;15.20;99.90;;;14.81;100.00;102021.06;4167150;28;20026;-75
2023/06/24 04:45:11;;;;;;;4.75;3.13;;;15.20;99.90;;;14.69;100.00;101985.91;4168731;28;20396;-75
2023/06/24 04:47:13;;;;;;;4.88;2.78;;;15.30;99.90;;;14.81;100.00;102005.09;4167378;28;20084;-76
2023/06/24 04:49:14;;;;;;;4.05;2.75;;;15.30;99.90;;;14.90;100.00;102009.50;4168275;28;20123;-75
2023/06/24 04:51:15;;;;;;;4.45;2.72;;;15.30;99.90;;;14.93;100.00;102014.50;4168450;28;20018;-75
2023/06/24 04:53:16;;;;;;;3.63;2.67;;;15.40;99.90;;;14.95;100.00;102013.38;4168677;28;20393;-76
2023/06/24 04:55:17;;;;;;;4.80;3.28;;;15.40;99.90;;;14.87;100.00;101996.53;4167409;28;20021;-75
2023/06/24 04:57:30;;;;;;;3.92;2.65;;;15.40;99.90;;;14.91;100.00;102001.38;4167115;28;20033;-75
2023/06/24 04:59:31;;;;;;;3.67;2.80;;;15.40;99.90;;;15.04;100.00;102010.78;4183978;28;20067;-75
2023/06/24 05:01:32;;;;;;;3.33;3.03;;;15.50;99.90;;;15.07;100.00;102016.63;4200535;28;20025;-75
2023/06/24 05:03:32;;;;;;;3.45;2.90;;;15.50;99.90;;;14.96;100.00;101990.28;4168555;28;20033;-75
2023/06/24 05:05:33;;;;;;;3.78;2.72;;;15.50;99.90;;;15.12;100.00;102014.31;4168546;28;20021;-76
2023/06/24 05:07:34;;;;;;;3.80;2.75;;;15.60;99.90;;;15.08;100.00;102001.50;4167073;28;20014;-75
2023/06/24 05:09:37;;;;;;;4.22;2.60;;;15.60;99.90;;;15.12;100.00;102003.69;4150853;28;20461;-75
2023/06/24 05:11:38;;;;;;;3.30;2.80;;;15.60;99.90;;;15.21;100.00;102013.41;4168219;28;20071;-75
2023/06/24 05:13:40;;;;;;;4.32;3.10;;;15.60;99.90;;;15.08;100.00;101988.22;4168408;28;20030;-75
2023/06/24 05:15:41;;;;;;;4.35;3.35;;;15.70;99.90;;;15.23;100.00;102011.41;4168263;28;20029;-75
2023/06/24 05:17:42;;;;;;;3.50;2.38;;;15.70;99.90;;;15.31;100.00;102014.13;4168459;28;20025;-76
2023/06/24 05:19:43;;;;;;;4.43;2.90;;;15.80;99.90;;;15.28;100.00;101998.50;4150495;28;20125;-76
2023/06/24 05:21:44;;;;;;;4.13;3.08;;;15.80;99.90;;;15.43;100.00;102009.41;4167082;28;20025;-76
2023/06/24 05:23:45;;;;;;;3.80;2.97;;;15.80;99.90;;;15.48;100.00;102005.31;4167062;28;20026;-76
2023/06/24 05:25:46;;;;;;;3.65;3.22;;;15.90;99.90;;;15.41;100.00;101985.59;4150749;28;20030;-76
2023/06/24 05:27:47;;;;;;;3.13;2.75;;;16.00;99.90;;;15.46;100.00;101985.16;4167056;28;20033;-76
2023/06/24 05:29:48;;;;;;;4.63;3.10;;;16.00;99.90;;;15.60;100.00;101997.88;4150668;28;20030;-76
2023/06/24 05:31:49;;;;;;;4.93;2.58;;;16.00;99.90;;;15.60;100.00;101997.03;4170352;28;20033;-75
2023/06/24 05:33:50;;;;;;;4.88;3.13;;;16.10;99.90;;;15.65;100.00;102000.09;4171544;28;20037;-76
2023/06/24 05:35:51;;;;;;;4.88;2.85;;;16.10;99.90;;;15.70;100.00;102001.28;4170126;28;20030;-76
2023/06/24 05:37:52;;;;;;;4.20;3.25;;;16.20;99.90;;;15.81;100.00;102008.13;4171403;28;20484;-76
2023/06/24 05:39:52;;;;;;;5.15;2.88;;;16.20;99.90;;;15.77;100.00;101988.97;4171214;28;20022;-76
2023/06/24 05:41:53;;;;;;;4.00;3.33;;;16.30;99.90;;;15.86;100.00;101998.66;4171209;28;20025;-76
2023/06/24 05:44:06;;;;;;;3.90;3.28;;;16.30;99.90;;;15.93;100.00;101997.06;4171202;28;20036;-76
2023/06/24 05:46:07;;;;;;;4.97;3.67;;;16.40;99.90;;;15.96;100.00;101998.56;4171220;28;20080;-76
2023/06/24 05:48:08;;;;;;;3.47;2.97;;;16.40;99.90;;;16.10;100.00;102013.91;4169830;28;20108;-75
2023/06/24 05:50:09;;;;;;;3.47;2.65;;;16.50;99.90;;;16.14;100.00;102004.59;4153533;28;20030;-75
2023/06/24 05:52:12;;;;;;;5.45;3.45;;;16.50;99.90;;;16.20;100.00;102011.94;4170170;28;20029;-76
2023/06/24 05:54:13;;;;;;;4.15;3.60;;;16.60;99.90;;;16.27;100.00;102012.97;4169972;28;20076;-76
2023/06/24 05:56:13;;;;;;;5.28;4.07;;;16.60;99.90;;;16.31;100.00;102011.66;4170824;28;20489;-76
2023/06/24 05:58:14;;;;;;;3.40;2.58;;;16.70;99.90;;;16.37;100.00;102010.16;4171172;28;20069;-76
2023/06/24 06:00:17;;;;;;;4.03;2.95;;;16.80;99.90;;;16.37;100.00;102005.66;4153508;28;20042;-76
2023/06/24 06:02:18;;;;;;;4.88;3.50;;;16.70;99.90;;;16.34;100.00;101997.16;4153719;28;20521;-75
2023/06/24 06:04:20;;;;;;;4.55;3.33;;;16.80;99.90;;;16.48;100.00;102010.72;4170872;28;20028;-76
2023/06/24 06:06:21;;;;;;;4.55;3.22;;;16.90;99.90;;;16.51;100.00;102002.38;4169673;28;20067;-76
2023/06/24 06:08:21;;;;;;;6.13;3.42;;;16.90;99.90;;;16.58;100.00;102007.91;4169840;28;20072;-76
2023/06/24 06:10:22;;;;;;;5.38;3.95;;;17.00;99.90;;;16.68;100.00;102015.75;4169753;28;20033;-76
2023/06/24 06:12:23;;;;;;;3.05;2.75;;;17.10;99.90;;;16.58;100.00;101986.59;4170530;28;20029;-76
2023/06/24 06:14:24;;;;;;;4.38;3.13;;;17.10;99.90;;;16.79;100.00;102012.75;4170018;28;20029;-76
2023/06/24 06:16:25;;;;;;;4.18;3.10;;;17.20;99.90;;;16.73;100.00;101984.94;4169669;28;20033;-76
2023/06/24 06:18:26;;;;;;;3.20;2.65;;;17.20;99.90;;;16.81;100.00;101994.78;4169720;28;20116;-76
2023/06/24 06:20:27;;;;;;;7.10;3.88;;;17.30;99.90;;;16.86;100.00;101993.28;4170564;28;20030;-75
2023/06/24 06:22:28;;;;;;;8.82;3.83;;;17.30;99.90;;;17.01;100.00;102009.44;4170628;28;20030;-76
2023/06/24 06:24:29;;;;;;;4.60;3.55;;;17.40;99.90;;;17.07;100.00;102003.44;4170702;28;20026;-75
2023/06/24 06:26:29;;;;;;;4.53;3.67;;;17.40;99.90;;;17.01;100.00;101980.97;4169287;28;20481;-76
2023/06/24 06:28:30;;;;;;;4.50;3.47;;;17.50;99.90;;;17.10;100.00;101985.28;4170762;28;20017;-75
2023/06/24 06:30:31;;;;;;;5.18;3.55;;;17.60;99.90;;;17.20;100.00;101994.94;4169497;28;20056;-76
2023/06/24 06:32:32;;;;;;;5.75;3.80;;;17.60;99.90;;;17.25;100.00;101992.59;4170616;28;20481;-76
2023/06/24 06:34:33;;;;;;;5.38;3.45;;;17.70;99.90;;;17.30;100.00;101985.75;4169378;28;20036;-75
2023/06/24 06:36:34;;;;;;;6.22;4.15;;;17.70;99.90;;;17.41;100.00;101998.72;4170423;28;20033;-76
2023/06/24 06:38:35;;;;;;;4.47;3.30;;;17.80;99.90;;;17.45;100.00;101983.22;4170721;28;20396;-76
2023/06/24 06:40:36;;;;;;;4.32;3.38;;;17.90;99.90;;;17.63;100.00;102003.38;4169147;28;20508;-76
2023/06/24 06:42:36;;;;;;;4.78;4.00;;;18.00;99.90;;;17.60;100.00;101992.19;4169397;28;20030;-76
2023/06/24 06:44:37;;;;;;;4.97;3.60;;;18.10;99.90;;;17.74;100.00;102004.03;4170258;28;20374;-76
2023/06/24 06:46:38;;;;;;;5.47;3.70;;;18.10;99.90;;;17.85;100.00;102006.31;4169319;28;20032;-76
2023/06/24 06:48:39;;;;;;;5.65;4.00;;;18.20;99.90;;;17.92;100.00;102008.09;4170397;28;20037;-76
2023/06/24 06:50:40;;;;;;;4.20;3.58;;;18.30;99.90;;;17.97;100.00;101999.59;4169063;28;20030;-76
2023/06/24 06:52:41;;;;;;;5.43;4.00;;;18.40;99.90;;;18.10;100.00;102005.19;4169131;28;20422;-76
2023/06/24 06:54:42;;;;;;;5.47;3.90;;;18.50;99.90;;;18.19;100.00;102006.81;4169069;28;20030;-76
2023/06/24 06:56:42;;;;;;;4.20;3.58;;;18.50;99.90;;;18.24;100.00;101997.28;4170035;28;20079;-76
2023/06/24 06:58:43;;;;;;;4.43;4.00;;;18.60;99.90;;;18.33;100.00;101989.22;4170403;28;20041;-76
2023/06/24 07:00:45;;;;;;;6.22;4.35;;;18.70;99.90;;;18.62;100.00;101998.22;4168961;28;20037;-75
2023/06/24 07:02:46;;;;;;;4.40;3.42;;;18.80;99.90;;;18.81;100.00;101988.91;4168825;28;20088;-76
2023/06/24 07:04:47;;;;;;;6.07;3.70;;;18.90;99.90;;;18.99;100.00;102008.16;4170077;28;20477;-75
2023/06/24 07:06:48;;;;;;;6.22;4.35;;;19.10;99.90;;;18.93;100.00;101997.34;4170024;28;20064;-76
2023/06/24 07:08:49;;;;;;;4.90;4.35;;;19.20;99.90;;;18.92;100.00;101990.31;4168811;28;20030;-76
2023/06/24 07:10:50;;;;;;;3.83;3.45;;;19.20;99.90;;;18.92;100.00;101988.47;4169652;28;20095;-76
2023/06/24 07:12:57;;;;;;;4.00;3.28;;;19.30;99.90;;;19.05;100.00;102006.59;4168841;28;20033;-76
2023/06/24 07:14:58;;;;;;;3.92;3.20;;;19.30;99.90;;;18.97;100.00;101982.56;4152966;28;20026;-76
2023/06/24 07:16:59;;;;;;;4.38;3.47;;;19.40;99.90;;;19.16;100.00;102006.16;4168666;28;20041;-76
2023/06/24 07:19:00;;;;;;;5.40;3.65;;;19.50;99.90;;;19.26;100.00;102009.41;4178493;28;20048;-76
2023/06/24 07:21:01;;;;;;;4.78;3.60;;;19.60;99.90;;;19.37;100.00;102005.44;4186306;28;20106;-76
2023/06/24 07:23:04;;;;;;;4.10;3.70;;;19.70;99.90;;;19.43;100.00;101984.16;4186199;28;20025;-75
2023/06/24 07:25:05;;;;;;;4.60;3.85;;;19.80;99.90;;;19.52;100.00;101996.44;4168723;28;20132;-76
2023/06/24 07:27:06;;;;;;;6.38;3.78;;;19.90;99.90;;;19.53;100.00;101990.09;4185984;28;20025;-76
2023/06/24 07:29:08;;;;;;;5.32;3.25;;;19.90;99.90;;;19.62;100.00;101994.31;4168790;28;20057;-76
2023/06/24 07:31:09;;;;;;;6.57;4.25;;;20.00;99.90;;;19.63;100.00;101982.59;4168443;28;20512;-76
2023/06/24 07:33:10;;;;;;;6.40;3.88;;;20.10;99.90;;;19.72;100.00;101973.47;4186006;28;20036;-76
2023/06/24 07:35:11;;;;;;;4.68;3.53;;;20.20;99.90;;;19.80;100.00;101981.38;4185908;28;20032;-76
2023/06/24 07:37:12;;;;;;;5.55;4.03;;;20.30;99.90;;;19.98;100.00;101989.03;4186096;28;20055;-76
2023/06/24 07:39:12;;;;;;;4.28;3.28;;;20.40;99.90;;;20.07;100.00;101987.09;4186012;28;20522;-76
2023/06/24 07:41:13;;;;;;;5.47;3.80;;;20.50;99.90;;;20.15;100.00;101979.78;4151552;28;20053;-75
2023/06/24 07:43:14;;;;;;;6.47;3.58;;;20.60;99.90;;;20.25;100.00;101985.66;4168358;28;20079;-76
2023/06/24 07:45:15;;;;;;;6.97;3.80;;;20.60;99.90;;;20.33;100.00;101993.63;4185968;28;20090;-75
2023/06/24 07:47:19;;;;;;;5.07;4.43;;;20.70;99.90;;;20.39;100.00;101981.31;4185891;28;20059;-76
2023/06/24 07:49:20;;;;;;;7.07;4.03;;;20.90;99.90;;;20.56;100.00;101993.44;4185739;28;20021;-76
2023/06/24 07:51:21;;;;;;;5.25;3.75;;;20.90;99.90;;;20.61;100.00;101985.63;4201198;28;20411;-76
2023/06/24 07:53:22;;;;;;;4.38;3.40;;;21.00;99.90;;;20.72;100.00;101976.25;4167782;28;20063;-76
2023/06/24 07:55:23;;;;;;;5.55;4.00;;;21.10;99.90;;;20.73;100.00;101959.13;4168039;28;20095;-76
2023/06/24 07:57:24;;;;;;;4.40;3.60;;;21.30;99.90;;;20.86;100.00;101962.78;4185561;28;20033;-76
2023/06/24 07:59:25;;;;;;;4.93;3.88;;;21.30;99.90;;;21.11;100.00;101975.81;4185507;28;20028;-76
2023/06/24 08:01:26;;;;;;;5.05;3.10;;;21.50;99.90;;;21.22;100.00;101975.25;4185795;28;20391;-76
2023/06/24 08:03:28;;;;;;;3.83;2.88;;;21.60;99.90;;;21.33;100.00;101966.66;4167983;28;20100;-76
2023/06/24 08:05:29;;;;;;;3.72;2.85;;;21.70;99.90;;;21.46;100.00;101972.13;4201125;28;20415;-76
2023/06/24 08:07:30;;;;;;;3.80;3.28;;;21.80;99.90;;;21.48;100.00;101953.94;4167830;28;20033;-76
2023/06/24 08:09:31;;;;;;;4.10;3.38;;;21.90;99.90;;;21.69;100.00;101974.50;4168098;28;20132;-76
2023/06/24 08:11:32;;;;;;;3.80;3.00;;;22.00;99.90;;;21.84;100.00;101967.97;4167650;28;20054;-76
2023/06/24 08:13:33;;;;;;;3.97;3.58;;;22.20;99.90;;;21.91;100.00;101950.06;4185629;28;20036;-76
2023/06/24 08:15:34;;;;;;;6.15;3.20;;;22.30;99.90;;;22.09;100.00;101956.72;4167702;28;20022;-76
2023/06/24 08:17:35;;;;;;;5.90;3.55;;;22.40;99.90;;;22.10;100.00;101944.97;4167884;28;20455;-76
2023/06/24 08:19:36;;;;;;;4.55;3.20;;;22.50;99.90;;;22.37;98.14;101965.50;4185228;28;20049;-76
2023/06/24 08:21:37;;;;;;;4.63;4.03;;;22.60;99.90;;;22.46;96.61;101945.47;4184280;28;20466;-76
2023/06/24 08:23:38;;;;;;;3.60;3.00;;;22.80;99.90;;;22.67;96.31;101947.97;4167671;28;20144;-76
2023/06/24 08:25:39;;;;;;;4.15;3.53;;;22.90;99.90;;;22.86;95.37;101955.22;4184021;28;20025;-76